Time,TemperatureF,DewpointF,PressureIn,WindDirection,WindDirectionDegrees,WindSpeedMPH,WindSpeedGustMPH,Humidity,HourlyPrecipIn,Conditions,Clouds,dailyrainin,SoftwareType,DateUTC
2014-12-18 00:00:00,33.4,27.3,29.75,West,269,8.0,10.0,78,0.00,,,0.00,Wunderground v.1.15,2014-12-18 05:00:00,
2014-12-18 00:10:00,33.3,27.2,29.75,West,281,8.0,9.0,78,0.00,,,0.00,Wunderground v.1.15,2014-12-18 05:10:00,
2014-12-18 00:20:00,33.2,26.8,29.75,WNW,283,8.0,11.0,77,0.00,,,0.00,Wunderground v.1.15,2014-12-18 05:20:00,
2014-12-18 00:30:00,33.1,26.7,29.75,West,280,9.0,11.0,77,0.00,,,0.00,Wunderground v.1.15,2014-12-18 05:30:00,
2014-12-18 00:40:00,33.1,26.4,29.75,WSW,257,9.0,11.0,76,0.00,,,0.00,Wunderground v.1.15,2014-12-18 05:40:00,
2014-12-18 00:49:00,32.8,26.1,29.75,West,281,8.0,10.0,76,0.00,,,0.00,Wunderground v.1.15,2014-12-18 05:49:00,
2014-12-18 01:00:00,32.7,26.0,29.75,WNW,284,7.0,7.0,76,0.00,,,0.00,Wunderground v.1.15,2014-12-18 06:00:00,
2014-12-18 01:10:00,32.6,25.9,29.75,West,277,7.0,7.0,76,0.00,,,0.00,Wunderground v.1.15,2014-12-18 06:10:00,
2014-12-18 01:20:00,32.4,25.7,29.75,WNW,283,5.0,5.0,76,0.00,,,0.00,Wunderground v.1.15,2014-12-18 06:20:00,
2014-12-18 01:30:00,32.3,25.3,29.76,NW,307,6.0,17.0,75,0.00,,,0.00,Wunderground v.1.15,2014-12-18 06:30:00,
2014-12-18 01:40:00,32.3,24.9,29.76,NW,315,5.0,5.0,74,0.00,,,0.00,Wunderground v.1.15,2014-12-18 06:40:00,
2014-12-18 01:50:00,31.9,25.2,29.76,West,280,1.0,17.0,76,0.00,,,0.00,Wunderground v.1.15,2014-12-18 06:50:00,
2014-12-18 02:00:00,31.9,25.2,29.77,WNW,283,5.0,5.0,76,0.00,,,0.00,Wunderground v.1.15,2014-12-18 07:00:00,
2014-12-18 02:09:00,31.9,24.2,29.76,NW,323,3.0,17.0,73,0.00,,,0.00,Wunderground v.1.15,2014-12-18 07:09:00,
2014-12-18 02:20:00,31.6,23.9,29.77,NW,309,3.0,3.0,73,0.00,,,0.00,Wunderground v.1.15,2014-12-18 07:20:00,
2014-12-18 02:30:00,31.5,23.8,29.77,WSW,245,4.0,17.0,73,0.00,,,0.00,Wunderground v.1.15,2014-12-18 07:30:00,
2014-12-18 02:40:00,31.4,23.4,29.77,West,269,5.0,17.0,72,0.00,,,0.00,Wunderground v.1.15,2014-12-18 07:40:00,
2014-12-18 02:50:00,31.9,23.2,29.77,West,270,7.0,17.0,70,0.00,,,0.00,Wunderground v.1.15,2014-12-18 07:50:00,
2014-12-18 03:00:00,31.6,22.9,29.78,West,269,6.0,6.0,70,0.00,,,0.00,Wunderground v.1.15,2014-12-18 08:00:00,
2014-12-18 03:10:00,31.7,22.3,29.78,West,274,8.0,8.0,68,0.00,,,0.00,Wunderground v.1.15,2014-12-18 08:10:00,
2014-12-18 03:20:00,31.4,22.1,29.78,West,277,6.0,17.0,68,0.00,,,0.00,Wunderground v.1.15,2014-12-18 08:20:00,
2014-12-18 03:30:00,31.5,21.8,29.78,WSW,242,9.0,17.0,67,0.00,,,0.00,Wunderground v.1.15,2014-12-18 08:30:00,
2014-12-18 03:40:00,31.5,21.8,29.78,West,267,9.0,17.0,67,0.00,,,0.00,Wunderground v.1.15,2014-12-18 08:40:00,
2014-12-18 03:50:00,31.3,21.6,29.78,West,273,7.0,7.0,67,0.00,,,0.00,Wunderground v.1.15,2014-12-18 08:50:00,
2014-12-18 04:00:00,31.2,21.5,29.78,West,274,8.0,8.0,67,0.00,,,0.00,Wunderground v.1.15,2014-12-18 09:00:00,
2014-12-18 04:10:00,31.0,21.3,29.78,West,279,6.0,17.0,67,0.00,,,0.00,Wunderground v.1.15,2014-12-18 09:10:00,
2014-12-18 04:20:00,30.8,21.5,29.79,WNW,290,6.0,6.0,68,0.00,,,0.00,Wunderground v.1.15,2014-12-18 09:20:00,
2014-12-18 04:30:00,30.7,21.4,29.79,WNW,287,5.0,5.0,68,0.00,,,0.00,Wunderground v.1.15,2014-12-18 09:30:00,